createdAt,value
2018-03-30T00:00:45.776Z,99.99
2018-03-30T00:01:45.762Z,99.99
2018-03-30T00:02:45.710Z,99.99
2018-03-30T00:03:45.663Z,99.99
2018-03-30T00:04:45.661Z,99.99
2018-03-30T00:05:45.611Z,99.99
2018-03-30T00:06:45.583Z,99.99
2018-03-30T00:07:45.604Z,99.99
2018-03-30T00:08:45.579Z,99.99
2018-03-30T00:09:45.515Z,99.99
2018-03-30T00:10:45.505Z,99.99
2018-03-30T00:11:45.478Z,99.99
2018-03-30T00:12:45.466Z,99.99
2018-03-30T00:13:45.428Z,99.99
2018-03-30T00:14:45.433Z,99.99
2018-03-30T00:15:45.397Z,99.99
2018-03-30T00:16:45.346Z,99.99
2018-03-30T00:17:45.360Z,99.99
2018-03-30T00:18:45.315Z,99.99
2018-03-30T00:19:45.298Z,99.99
2018-03-30T00:20:45.271Z,99.99
2018-03-30T00:21:45.211Z,99.99
2018-03-30T00:22:45.212Z,99.99
2018-03-30T00:23:45.198Z,99.99
2018-03-30T00:24:45.182Z,99.99
2018-03-30T00:25:45.135Z,99.99
2018-03-30T00:26:45.088Z,99.99
2018-03-30T00:27:45.096Z,99.99
2018-03-30T00:28:45.054Z,99.99
2018-03-30T00:29:45.056Z,99.99
2018-03-30T00:30:44.994Z,99.99
2018-03-30T00:31:44.996Z,99.99
2018-03-30T00:32:44.977Z,99.99
2018-03-30T00:33:44.942Z,99.99
2018-03-30T00:34:44.937Z,99.99
2018-03-30T00:35:44.926Z,99.99
2018-03-30T00:36:44.849Z,99.99
2018-03-30T00:37:44.840Z,99.99
2018-03-30T00:38:44.826Z,99.99
2018-03-30T00:39:44.780Z,99.99
2018-03-30T00:40:44.783Z,99.99
2018-03-30T00:41:44.722Z,99.99
2018-03-30T00:42:44.743Z,99.99
2018-03-30T00:43:44.670Z,99.99
2018-03-30T00:44:44.677Z,99.99
2018-03-30T00:45:44.638Z,99.99
2018-03-30T00:46:44.602Z,99.99
2018-03-30T00:47:44.581Z,99.99
2018-03-30T00:48:44.575Z,99.99
2018-03-30T00:49:44.522Z,99.99
2018-03-30T00:50:44.535Z,99.99
2018-03-30T00:51:44.476Z,99.99
2018-03-30T00:52:44.451Z,99.99
2018-03-30T00:53:44.435Z,99.99
2018-03-30T00:54:44.403Z,99.99
2018-03-30T00:55:44.375Z,99.99
2018-03-30T00:56:44.354Z,99.99
2018-03-30T00:57:44.330Z,99.99
2018-03-30T00:58:44.318Z,99.99
2018-03-30T00:59:44.287Z,99.99
2018-03-30T01:00:44.263Z,99.99
2018-03-30T01:01:44.254Z,99.99
2018-03-30T01:02:44.200Z,99.99
2018-03-30T01:03:44.175Z,99.99
2018-03-30T01:04:44.154Z,99.99
2018-03-30T01:05:44.138Z,99.99
2018-03-30T01:06:44.106Z,99.99
2018-03-30T01:07:44.115Z,99.99
2018-03-30T01:08:44.056Z,99.99
2018-03-30T01:09:44.018Z,99.99
2018-03-30T01:10:44.013Z,99.99
2018-03-30T01:11:43.994Z,99.99
2018-03-30T01:12:43.973Z,99.99
2018-03-30T01:13:43.973Z,99.99
2018-03-30T01:14:43.914Z,99.99
2018-03-30T01:15:43.920Z,99.99
2018-03-30T01:16:43.871Z,99.99
2018-03-30T01:17:43.828Z,99.99
2018-03-30T01:18:43.848Z,99.99
2018-03-30T01:19:43.787Z,99.99
2018-03-30T01:20:43.774Z,99.99
2018-03-30T01:21:43.729Z,99.99
2018-03-30T01:22:43.706Z,99.99
2018-03-30T01:23:43.691Z,99.99
2018-03-30T01:24:43.655Z,99.99
2018-03-30T01:25:43.628Z,99.99
2018-03-30T01:26:43.620Z,99.99
2018-03-30T01:27:43.603Z,99.99
2018-03-30T01:28:43.571Z,99.99
2018-03-30T01:29:43.541Z,99.99
2018-03-30T01:30:43.518Z,99.99
2018-03-30T01:31:43.487Z,99.99
2018-03-30T01:32:43.454Z,99.99
2018-03-30T01:33:43.444Z,99.99
2018-03-30T01:34:43.451Z,99.99
2018-03-30T01:35:43.391Z,99.99
2018-03-30T01:36:43.386Z,99.99
2018-03-30T01:37:43.332Z,99.99
2018-03-30T01:38:43.312Z,99.99
2018-03-30T01:39:43.316Z,99.99
2018-03-30T01:40:43.282Z,99.99
2018-03-30T01:41:43.277Z,99.99
2018-03-30T01:42:43.197Z,99.99
2018-03-30T01:43:43.197Z,99.99
2018-03-30T01:44:43.176Z,99.99
2018-03-30T01:45:43.131Z,99.99
2018-03-30T01:46:43.101Z,99.99
2018-03-30T01:47:43.085Z,99.99
2018-03-30T01:48:43.077Z,99.99
2018-03-30T01:49:43.017Z,99.99
2018-03-30T01:50:43.008Z,99.99
2018-03-30T01:51:42.975Z,99.99
2018-03-30T01:52:42.948Z,99.99
2018-03-30T01:53:42.926Z,99.99
2018-03-30T01:54:42.925Z,99.99
2018-03-30T01:55:42.883Z,99.99
2018-03-30T01:56:42.870Z,99.99
2018-03-30T01:57:42.845Z,99.99
2018-03-30T01:58:42.859Z,99.99
2018-03-30T01:59:42.820Z,99.99
2018-03-30T02:00:42.771Z,99.99
2018-03-30T02:01:42.720Z,99.99
2018-03-30T02:02:42.702Z,99.99
2018-03-30T02:03:42.694Z,99.99
2018-03-30T02:04:42.669Z,99.99
2018-03-30T02:05:44.192Z,99.99
2018-03-30T02:06:42.606Z,99.99
2018-03-30T02:07:42.586Z,99.99
2018-03-30T02:08:42.634Z,99.99
2018-03-30T02:09:42.571Z,99.99
2018-03-30T02:10:42.535Z,99.99
2018-03-30T02:11:42.488Z,99.99
2018-03-30T02:12:42.464Z,99.99
2018-03-30T02:13:42.447Z,99.99
2018-03-30T02:14:42.433Z,99.99
2018-03-30T02:15:42.394Z,99.99
2018-03-30T02:16:42.347Z,99.99
2018-03-30T02:17:42.365Z,99.99
2018-03-30T02:18:42.306Z,99.99
2018-03-30T02:19:42.286Z,99.99
2018-03-30T02:20:42.267Z,99.99
2018-03-30T02:21:42.271Z,99.99
2018-03-30T02:22:42.239Z,99.99
2018-03-30T02:23:42.215Z,99.99
2018-03-30T02:24:42.191Z,99.99
2018-03-30T02:25:42.153Z,99.99
2018-03-30T02:26:42.155Z,99.99
2018-03-30T02:27:42.130Z,99.99
2018-03-30T02:28:42.100Z,99.99
2018-03-30T02:29:42.050Z,99.99
2018-03-30T02:30:42.016Z,99.99
2018-03-30T02:31:41.995Z,99.99
2018-03-30T02:32:41.976Z,99.99
2018-03-30T02:33:41.968Z,99.99
2018-03-30T02:34:41.921Z,99.99
2018-03-30T02:35:41.893Z,99.99
2018-03-30T02:36:41.863Z,99.99
2018-03-30T02:37:41.847Z,99.99
2018-03-30T02:38:41.840Z,99.99
2018-03-30T02:39:41.793Z,99.99
2018-03-30T02:40:41.762Z,99.99
2018-03-30T02:41:41.770Z,99.99
2018-03-30T02:42:41.732Z,99.99
2018-03-30T02:43:41.681Z,99.99
2018-03-30T02:44:41.677Z,99.99
2018-03-30T02:45:41.647Z,99.99
2018-03-30T02:46:41.654Z,99.99
2018-03-30T02:47:41.580Z,99.99
2018-03-30T02:48:41.616Z,99.99
2018-03-30T02:49:41.564Z,99.99
2018-03-30T02:50:41.510Z,99.99
2018-03-30T02:51:41.488Z,99.99
2018-03-30T02:52:41.478Z,99.99
2018-03-30T02:53:41.446Z,99.99
2018-03-30T02:54:41.493Z,99.99
2018-03-30T02:55:41.404Z,99.99
2018-03-30T02:56:41.370Z,99.99
2018-03-30T02:57:41.378Z,99.99
2018-03-30T02:58:41.304Z,99.99
2018-03-30T02:59:41.323Z,99.99
2018-03-30T03:00:41.271Z,99.99
2018-03-30T03:01:41.247Z,99.99
2018-03-30T03:02:41.224Z,99.99
2018-03-30T03:03:41.192Z,99.99
2018-03-30T03:04:41.170Z,99.99
2018-03-30T03:05:41.175Z,99.99
2018-03-30T03:06:41.109Z,99.99
2018-03-30T03:07:41.146Z,99.99
2018-03-30T03:08:41.105Z,99.99
2018-03-30T03:09:41.039Z,99.99
2018-03-30T03:10:41.036Z,99.99
2018-03-30T03:11:41.001Z,99.99
2018-03-30T03:12:40.988Z,99.99
2018-03-30T03:13:40.945Z,99.99
2018-03-30T03:14:40.970Z,99.99
2018-03-30T03:15:40.907Z,99.99
2018-03-30T03:16:40.858Z,99.99
2018-03-30T03:17:40.843Z,99.99
2018-03-30T03:18:40.822Z,99.99
2018-03-30T03:19:40.809Z,99.99
2018-03-30T03:20:40.784Z,99.99
2018-03-30T03:21:40.757Z,99.99
2018-03-30T03:22:40.757Z,99.99
2018-03-30T03:23:40.743Z,99.99
2018-03-30T03:24:40.667Z,99.99
2018-03-30T03:25:40.659Z,99.99
2018-03-30T03:26:40.614Z,99.99
2018-03-30T03:27:40.594Z,99.99
2018-03-30T03:28:40.608Z,99.99
2018-03-30T03:29:40.542Z,99.99
2018-03-30T03:30:40.512Z,99.99
2018-03-30T03:31:40.514Z,99.99
2018-03-30T03:32:40.500Z,99.99
2018-03-30T03:33:40.481Z,99.99
2018-03-30T03:34:40.420Z,99.99
2018-03-30T03:35:40.425Z,99.99
2018-03-30T03:36:40.364Z,99.99
2018-03-30T03:37:40.434Z,99.99
2018-03-30T03:38:40.327Z,99.99
2018-03-30T03:39:40.285Z,99.99
2018-03-30T03:40:40.260Z,99.99
2018-03-30T03:41:40.270Z,99.99
2018-03-30T03:42:40.237Z,99.99
2018-03-30T03:43:40.197Z,99.99
2018-03-30T03:44:40.157Z,99.99
2018-03-30T03:45:40.160Z,99.99
2018-03-30T03:46:40.134Z,99.99
2018-03-30T03:47:40.134Z,99.99
2018-03-30T03:48:40.063Z,99.99
2018-03-30T03:49:40.171Z,99.99
2018-03-30T03:50:40.046Z,99.99
2018-03-30T03:51:39.996Z,99.99
2018-03-30T03:52:39.962Z,99.99
2018-03-30T03:53:39.971Z,99.99
2018-03-30T03:54:39.911Z,99.99
2018-03-30T03:55:39.915Z,99.99
2018-03-30T03:56:39.922Z,99.99
2018-03-30T03:57:39.831Z,99.99
2018-03-30T03:58:39.814Z,99.99
2018-03-30T03:59:39.783Z,99.99
2018-03-30T04:00:39.777Z,99.99
2018-03-30T04:01:39.747Z,99.99
2018-03-30T04:02:39.708Z,99.99
2018-03-30T04:03:39.699Z,99.99
2018-03-30T04:04:39.655Z,99.99
2018-03-30T04:05:39.646Z,99.99
2018-03-30T04:06:39.627Z,99.99
2018-03-30T04:07:39.600Z,99.99
2018-03-30T04:08:39.588Z,99.99
2018-03-30T04:09:39.558Z,99.99
2018-03-30T04:10:39.514Z,99.99
2018-03-30T04:11:39.490Z,99.99
2018-03-30T04:12:39.482Z,99.99
2018-03-30T04:13:39.447Z,99.99
2018-03-30T04:14:39.443Z,99.99
2018-03-30T04:15:39.400Z,99.99
2018-03-30T04:16:39.392Z,99.99
2018-03-30T04:17:39.341Z,99.99
2018-03-30T04:18:39.354Z,99.99
2018-03-30T04:19:39.296Z,99.99
2018-03-30T04:20:39.312Z,99.99
2018-03-30T04:21:39.258Z,99.99
2018-03-30T04:22:39.247Z,99.99
2018-03-30T04:23:39.194Z,99.99
2018-03-30T04:24:39.173Z,99.99
2018-03-30T04:25:39.144Z,99.99
2018-03-30T04:26:39.119Z,99.99
2018-03-30T04:27:39.100Z,99.99
2018-03-30T04:28:39.107Z,99.99
2018-03-30T04:29:39.079Z,99.99
2018-03-30T04:30:39.728Z,99.99
2018-03-30T04:31:38.992Z,99.99
2018-03-30T04:32:38.976Z,99.99
2018-03-30T04:33:38.958Z,99.99
2018-03-30T04:34:38.903Z,99.99
2018-03-30T04:35:38.938Z,99.99
2018-03-30T04:36:38.925Z,99.99
2018-03-30T04:37:38.871Z,99.99
2018-03-30T04:38:38.840Z,99.99
2018-03-30T04:39:38.779Z,99.99
2018-03-30T04:40:38.786Z,99.99
2018-03-30T04:41:38.732Z,99.99
2018-03-30T04:42:38.718Z,99.99
2018-03-30T04:43:38.694Z,99.99
2018-03-30T04:44:38.693Z,99.99
2018-03-30T04:45:38.665Z,99.99
2018-03-30T04:46:38.624Z,99.99
2018-03-30T04:47:39.258Z,99.99
2018-03-30T04:48:38.595Z,99.99
2018-03-30T04:49:38.540Z,99.99
2018-03-30T04:50:38.533Z,99.99
2018-03-30T04:51:38.477Z,99.99
2018-03-30T04:52:38.473Z,99.99
2018-03-30T04:53:38.430Z,99.99
2018-03-30T04:54:38.420Z,99.99
2018-03-30T04:55:38.392Z,99.99
2018-03-30T04:56:38.361Z,99.99
2018-03-30T04:57:38.356Z,99.99
2018-03-30T04:58:38.344Z,99.99
2018-03-30T04:59:38.290Z,99.99
2018-03-30T05:00:38.306Z,99.99
2018-03-30T05:01:38.261Z,99.99
2018-03-30T05:02:38.231Z,99.99
2018-03-30T05:03:38.177Z,99.99
2018-03-30T05:04:38.154Z,99.99
2018-03-30T05:05:38.146Z,99.99
2018-03-30T05:06:38.115Z,99.99
2018-03-30T05:07:38.083Z,99.99
2018-03-30T05:08:38.068Z,99.99
2018-03-30T05:09:38.028Z,99.99
2018-03-30T05:10:38.010Z,99.99
2018-03-30T05:11:37.982Z,99.99
2018-03-30T05:12:37.961Z,99.99
2018-03-30T05:13:37.927Z,99.99
2018-03-30T05:14:37.952Z,99.99
2018-03-30T05:15:37.879Z,99.99
2018-03-30T05:16:37.861Z,99.99
2018-03-30T05:17:37.844Z,99.99
2018-03-30T05:18:37.812Z,99.99
2018-03-30T05:19:37.789Z,99.99
2018-03-30T05:20:37.769Z,99.99
2018-03-30T05:21:37.736Z,99.99
2018-03-30T05:22:37.715Z,99.99
2018-03-30T05:23:37.698Z,99.99
2018-03-30T05:24:37.672Z,99.99
2018-03-30T05:25:37.686Z,99.99
2018-03-30T05:26:37.875Z,99.99
2018-03-30T05:27:37.582Z,99.99
2018-03-30T05:28:37.566Z,99.99
2018-03-30T05:29:37.548Z,99.99
2018-03-30T05:30:37.492Z,99.99
2018-03-30T05:31:37.475Z,99.99
2018-03-30T05:32:37.460Z,99.99
2018-03-30T05:33:37.422Z,99.99
2018-03-30T05:34:37.420Z,99.99
2018-03-30T05:35:37.390Z,99.99
2018-03-30T05:36:37.353Z,99.99
2018-03-30T05:37:37.336Z,99.99
2018-03-30T05:38:37.327Z,99.99
2018-03-30T05:39:37.280Z,99.99
2018-03-30T05:40:37.283Z,99.99
2018-03-30T05:41:37.244Z,99.99
2018-03-30T05:42:37.223Z,99.99
2018-03-30T05:43:37.176Z,99.99
2018-03-30T05:44:37.136Z,99.99
2018-03-30T05:45:37.177Z,99.99
2018-03-30T05:46:37.097Z,99.99
2018-03-30T05:47:37.073Z,99.99
2018-03-30T05:48:37.052Z,99.99
2018-03-30T05:49:37.067Z,99.99
2018-03-30T05:50:37.006Z,99.99
2018-03-30T05:51:37.000Z,99.99
2018-03-30T05:52:36.973Z,99.99
2018-03-30T05:53:36.908Z,99.99
2018-03-30T05:54:37.718Z,99.99
2018-03-30T05:55:36.888Z,99.99
2018-03-30T05:56:36.849Z,99.99
2018-03-30T05:57:36.835Z,99.99
2018-03-30T05:58:36.832Z,99.99
2018-03-30T05:59:36.793Z,99.99
2018-03-30T06:00:36.749Z,99.99
2018-03-30T06:01:36.711Z,99.99
2018-03-30T06:02:36.691Z,99.99
2018-03-30T06:03:36.686Z,99.99
2018-03-30T06:04:36.684Z,99.99
2018-03-30T06:05:36.619Z,99.99
2018-03-30T06:06:36.591Z,99.99
2018-03-30T06:07:36.664Z,99.99
2018-03-30T06:08:36.541Z,99.99
2018-03-30T06:09:36.557Z,99.99
2018-03-30T06:10:36.536Z,99.99
2018-03-30T06:11:36.506Z,99.99
2018-03-30T06:12:36.476Z,99.99
2018-03-30T06:13:36.447Z,99.99
2018-03-30T06:14:36.394Z,99.99
2018-03-30T06:15:36.389Z,99.95
2018-03-30T06:16:36.413Z,99.47
2018-03-30T06:17:36.334Z,99.09
2018-03-30T06:18:36.314Z,98.14
2018-03-30T06:19:36.287Z,97.39
2018-03-30T06:20:36.286Z,97.25
2018-03-30T06:21:36.360Z,96.97
2018-03-30T06:22:36.213Z,96.40
2018-03-30T06:23:36.214Z,95.83
2018-03-30T06:24:36.226Z,95.55
2018-03-30T06:25:36.152Z,94.98
2018-03-30T06:26:36.104Z,94.79
2018-03-30T06:27:36.238Z,95.64
2018-03-30T06:28:36.253Z,94.70
2018-03-30T06:29:36.070Z,94.79
2018-03-30T06:30:36.031Z,95.07
2018-03-30T06:31:35.994Z,94.84
2018-03-30T06:32:35.955Z,94.46
2018-03-30T06:33:35.989Z,93.32
2018-03-30T06:34:35.910Z,92.71
2018-03-30T06:35:35.885Z,90.72
2018-03-30T06:36:35.895Z,90.15
2018-03-30T06:37:35.909Z,89.82
2018-03-30T06:38:35.848Z,88.68
2018-03-30T06:39:35.799Z,88.30
2018-03-30T06:40:35.835Z,87.45
2018-03-30T06:41:35.742Z,87.35
2018-03-30T06:42:35.737Z,86.64
2018-03-30T06:43:35.765Z,85.50
2018-03-30T06:44:35.738Z,84.55
2018-03-30T06:45:35.783Z,83.13
2018-03-30T06:46:35.712Z,82.66
2018-03-30T06:47:35.886Z,81.71
2018-03-30T06:48:35.576Z,81.71
2018-03-30T06:49:35.639Z,81.99
2018-03-30T06:50:35.582Z,81.71
2018-03-30T06:51:35.520Z,82.09
2018-03-30T06:52:35.525Z,82.24
2018-03-30T06:53:35.500Z,82.05
2018-03-30T06:54:36.221Z,83.28
2018-03-30T06:55:35.480Z,83.66
2018-03-30T06:56:35.434Z,83.85
2018-03-30T06:57:35.405Z,84.23
2018-03-30T06:58:35.342Z,84.13
2018-03-30T06:59:35.321Z,84.42
2018-03-30T07:00:35.326Z,84.42
2018-03-30T07:01:35.333Z,83.98
2018-03-30T07:02:35.299Z,83.32
2018-03-30T07:03:35.273Z,82.47
2018-03-30T07:04:35.266Z,82.28
2018-03-30T07:05:35.184Z,81.66
2018-03-30T07:06:35.197Z,80.43
2018-03-30T07:07:35.135Z,79.61
2018-03-30T07:08:35.128Z,79.38
2018-03-30T07:09:35.130Z,78.62
2018-03-30T07:10:35.092Z,78.72
2018-03-30T07:11:35.056Z,79.00
2018-03-30T07:12:35.035Z,78.81
2018-03-30T07:13:35.030Z,78.81
2018-03-30T07:14:35.041Z,79.00
2018-03-30T07:15:34.987Z,79.28
2018-03-30T07:16:34.972Z,79.10
2018-03-30T07:17:34.982Z,80.24
2018-03-30T07:18:34.920Z,80.62
2018-03-30T07:19:34.879Z,80.37
2018-03-30T07:20:34.852Z,79.42
2018-03-30T07:21:34.835Z,78.32
2018-03-30T07:22:34.866Z,77.03
2018-03-30T07:23:34.846Z,75.60
2018-03-30T07:24:34.804Z,74.88
2018-03-30T07:25:34.752Z,73.36
2018-03-30T07:26:34.725Z,72.45
2018-03-30T07:27:34.692Z,70.39
2018-03-30T07:28:34.690Z,68.87
2018-03-30T07:29:34.677Z,68.49
2018-03-30T07:30:34.653Z,69.00
2018-03-30T07:31:34.618Z,68.15
2018-03-30T07:32:34.614Z,67.51
2018-03-30T07:33:34.570Z,67.22
2018-03-30T07:34:34.583Z,66.46
2018-03-30T07:35:34.769Z,65.77
2018-03-30T07:36:34.521Z,65.80
2018-03-30T07:37:34.478Z,64.81
2018-03-30T07:38:34.477Z,62.75
2018-03-30T07:39:34.494Z,60.55
2018-03-30T07:40:34.506Z,58.29
2018-03-30T07:41:34.405Z,57.56
2018-03-30T07:42:34.394Z,57.02
2018-03-30T07:43:34.404Z,55.77
2018-03-30T07:44:36.311Z,55.61
2018-03-30T07:45:34.414Z,55.13
2018-03-30T07:46:34.345Z,54.18
2018-03-30T07:47:34.285Z,53.39
2018-03-30T07:48:34.309Z,53.17
2018-03-30T07:49:34.241Z,54.03
2018-03-30T07:50:34.273Z,54.25
2018-03-30T07:51:34.212Z,52.96
2018-03-30T07:52:34.807Z,52.13
2018-03-30T07:53:34.192Z,50.29
2018-03-30T07:54:34.176Z,49.23
2018-03-30T07:55:34.159Z,49.69
2018-03-30T07:56:34.159Z,50.64
2018-03-30T07:57:34.088Z,50.19
2018-03-30T07:58:34.083Z,49.00
2018-03-30T07:59:34.130Z,48.47
2018-03-30T08:00:34.045Z,46.77
2018-03-30T08:01:34.102Z,45.57
2018-03-30T08:02:34.009Z,44.23
2018-03-30T08:03:34.093Z,44.06
2018-03-30T08:04:33.987Z,42.61
2018-03-30T08:05:33.943Z,42.23
2018-03-30T08:06:34.028Z,42.11
2018-03-30T08:07:34.388Z,42.21
2018-03-30T08:08:33.934Z,41.25
2018-03-30T08:09:34.120Z,40.94
2018-03-30T08:10:33.866Z,41.50
2018-03-30T08:11:33.845Z,41.96
2018-03-30T08:12:33.892Z,42.99
2018-03-30T08:13:33.822Z,44.04
2018-03-30T08:14:33.849Z,44.31
2018-03-30T08:15:33.795Z,44.79
2018-03-30T08:16:33.774Z,45.62
2018-03-30T08:17:34.693Z,46.20
2018-03-30T08:18:33.744Z,46.39
2018-03-30T08:19:33.820Z,46.22
2018-03-30T08:20:33.704Z,46.12
2018-03-30T08:21:33.712Z,45.96
2018-03-30T08:22:33.706Z,45.12
2018-03-30T08:23:33.674Z,43.55
2018-03-30T08:24:33.640Z,41.12
2018-03-30T08:25:33.635Z,39.24
2018-03-30T08:26:34.282Z,38.20
2018-03-30T08:27:33.592Z,36.52
2018-03-30T08:28:33.610Z,34.53
2018-03-30T08:29:33.579Z,32.64
2018-03-30T08:30:33.541Z,31.40
2018-03-30T08:31:33.549Z,31.04
2018-03-30T08:32:33.529Z,28.75
2018-03-30T08:33:33.499Z,27.11
2018-03-30T08:34:33.485Z,26.53
2018-03-30T08:35:33.493Z,26.54
2018-03-30T08:36:33.467Z,25.29
2018-03-30T08:37:33.427Z,25.01
2018-03-30T08:38:33.435Z,24.43
2018-03-30T08:39:33.403Z,23.95
2018-03-30T08:40:33.401Z,24.66
2018-03-30T08:41:33.391Z,23.59
2018-03-30T08:42:33.372Z,23.02
2018-03-30T08:43:33.360Z,22.64
2018-03-30T08:44:33.366Z,22.16
2018-03-30T08:45:33.357Z,21.48
2018-03-30T08:46:33.343Z,21.01
2018-03-30T08:47:33.311Z,20.23
2018-03-30T08:48:33.298Z,20.14
2018-03-30T08:49:33.305Z,19.84
2018-03-30T08:50:33.342Z,19.84
2018-03-30T08:51:33.272Z,19.46
2018-03-30T08:52:33.290Z,18.98
2018-03-30T08:53:33.263Z,19.37
2018-03-30T08:54:33.250Z,19.19
2018-03-30T08:55:33.248Z,19.20
2018-03-30T08:56:33.249Z,17.25
2018-03-30T08:57:33.207Z,16.66
2018-03-30T08:58:33.223Z,16.95
2018-03-30T08:59:33.255Z,17.14
2018-03-30T09:00:33.224Z,16.36
2018-03-30T09:01:33.197Z,16.75
2018-03-30T09:02:33.202Z,16.95
2018-03-30T09:03:33.188Z,16.66
2018-03-30T09:04:33.177Z,16.96
2018-03-30T09:05:33.151Z,17.25
2018-03-30T09:06:33.139Z,17.46
2018-03-30T09:07:33.139Z,16.67
2018-03-30T09:08:33.130Z,16.19
2018-03-30T09:09:33.123Z,16.86
2018-03-30T09:10:33.130Z,16.76
2018-03-30T09:11:33.098Z,17.14
2018-03-30T09:12:33.097Z,17.23
2018-03-30T09:13:33.082Z,17.43
2018-03-30T09:14:33.071Z,17.52
2018-03-30T09:15:33.093Z,17.63
2018-03-30T09:16:33.089Z,17.34
2018-03-30T09:17:33.076Z,17.25
2018-03-30T09:18:33.071Z,16.09
2018-03-30T09:19:33.137Z,16.58
2018-03-30T09:20:33.052Z,16.29
2018-03-30T09:21:33.082Z,16.39
2018-03-30T09:22:33.024Z,14.93
2018-03-30T09:23:33.032Z,14.83
2018-03-30T09:24:33.025Z,15.63
2018-03-30T09:25:33.017Z,16.22
2018-03-30T09:26:33.002Z,16.52
2018-03-30T09:27:32.990Z,15.05
2018-03-30T09:28:32.975Z,15.15
2018-03-30T09:29:33.019Z,15.25
2018-03-30T09:30:33.010Z,14.76
2018-03-30T09:31:32.982Z,15.15
2018-03-30T09:32:32.991Z,14.66
2018-03-30T09:33:32.980Z,14.86
2018-03-30T09:34:32.954Z,14.67
2018-03-30T09:35:32.973Z,14.28
2018-03-30T09:36:32.955Z,13.99
2018-03-30T09:37:32.943Z,13.21
2018-03-30T09:38:32.982Z,13.42
2018-03-30T09:39:32.976Z,13.22
2018-03-30T09:40:32.896Z,13.23
2018-03-30T09:41:32.909Z,12.84
2018-03-30T09:42:32.891Z,12.24
2018-03-30T09:43:32.901Z,12.83
2018-03-30T09:44:32.890Z,13.13
2018-03-30T09:45:32.882Z,12.94
2018-03-30T09:46:32.898Z,12.35
2018-03-30T09:47:32.870Z,11.57
2018-03-30T09:48:32.873Z,11.57
2018-03-30T09:49:32.880Z,12.46
2018-03-30T09:50:32.870Z,12.26
2018-03-30T09:51:32.859Z,11.49
2018-03-30T09:52:32.864Z,10.79
2018-03-30T09:53:32.887Z,11.18
2018-03-30T09:54:32.885Z,11.87
2018-03-30T09:55:32.841Z,12.16
2018-03-30T09:56:32.849Z,11.68
2018-03-30T09:57:32.834Z,11.58
2018-03-30T09:58:32.833Z,11.69
2018-03-30T09:59:32.811Z,11.19
2018-03-30T10:00:32.828Z,11.00
2018-03-30T10:01:32.811Z,10.90
2018-03-30T10:02:32.833Z,9.53
2018-03-30T10:03:32.851Z,9.42
2018-03-30T10:04:32.817Z,9.51
2018-03-30T10:05:32.807Z,9.80
2018-03-30T10:06:32.809Z,10.58
2018-03-30T10:07:32.802Z,10.87
2018-03-30T10:08:32.787Z,10.57
2018-03-30T10:09:32.784Z,10.56
2018-03-30T10:10:32.782Z,11.53
2018-03-30T10:11:32.788Z,12.40
2018-03-30T10:12:32.800Z,12.40
2018-03-30T10:13:32.777Z,12.59
2018-03-30T10:14:32.779Z,13.46
2018-03-30T10:15:32.788Z,13.48
2018-03-30T10:16:32.755Z,13.17
2018-03-30T10:17:32.749Z,13.28
2018-03-30T10:18:32.795Z,12.79
2018-03-30T10:19:33.302Z,12.49
2018-03-30T10:20:32.770Z,13.17
2018-03-30T10:21:32.766Z,13.77
2018-03-30T10:22:32.716Z,12.80
2018-03-30T10:23:32.723Z,12.70
2018-03-30T10:24:32.772Z,12.71
2018-03-30T10:25:32.748Z,12.92
2018-03-30T10:26:32.712Z,12.73
2018-03-30T10:27:32.730Z,13.03
2018-03-30T10:28:32.774Z,13.23
2018-03-30T10:29:32.688Z,11.46
2018-03-30T10:30:32.731Z,11.64
2018-03-30T10:31:32.697Z,13.60
2018-03-30T10:32:32.714Z,13.89
2018-03-30T10:33:32.685Z,13.40
2018-03-30T10:34:32.700Z,13.60
2018-03-30T10:35:32.682Z,13.31
2018-03-30T10:36:32.705Z,12.93
2018-03-30T10:37:32.676Z,12.24
2018-03-30T10:38:32.658Z,12.23
2018-03-30T10:39:32.660Z,11.74
2018-03-30T10:40:32.680Z,11.83
2018-03-30T10:41:32.713Z,11.83
2018-03-30T10:42:32.671Z,12.13
2018-03-30T10:43:32.745Z,12.03
2018-03-30T10:44:32.655Z,11.35
2018-03-30T10:45:32.674Z,11.84
2018-03-30T10:46:32.640Z,11.84
2018-03-30T10:47:32.669Z,11.75
2018-03-30T10:48:32.654Z,11.55
2018-03-30T10:49:32.637Z,11.65
2018-03-30T10:50:32.628Z,11.25
2018-03-30T10:51:32.658Z,12.23
2018-03-30T10:52:32.660Z,12.41
2018-03-30T10:53:32.657Z,12.21
2018-03-30T10:54:32.667Z,13.37
2018-03-30T10:55:32.624Z,13.46
2018-03-30T10:56:32.622Z,13.07
2018-03-30T10:57:32.610Z,14.25
2018-03-30T10:58:32.636Z,15.32
2018-03-30T10:59:32.599Z,14.65
2018-03-30T11:00:32.602Z,12.90
2018-03-30T11:01:32.593Z,12.30
2018-03-30T11:02:32.585Z,12.60
2018-03-30T11:03:32.586Z,13.66
2018-03-30T11:04:32.566Z,14.05
2018-03-30T11:05:32.619Z,14.25
2018-03-30T11:06:32.628Z,13.46
2018-03-30T11:07:32.582Z,13.67
2018-03-30T11:08:32.558Z,13.57
2018-03-30T11:09:32.580Z,13.57
2018-03-30T11:10:32.552Z,14.16
2018-03-30T11:11:33.335Z,14.26
2018-03-30T11:12:32.549Z,13.78
2018-03-30T11:13:32.536Z,14.07
2018-03-30T11:14:32.524Z,13.69
2018-03-30T11:15:32.513Z,12.81
2018-03-30T11:16:33.345Z,12.41
2018-03-30T11:17:32.493Z,13.11
2018-03-30T11:18:32.500Z,13.51
2018-03-30T11:19:32.497Z,13.71
2018-03-30T11:20:32.501Z,13.51
2018-03-30T11:21:32.488Z,12.44
2018-03-30T11:22:32.482Z,12.84
2018-03-30T11:23:32.527Z,12.84
2018-03-30T11:24:32.474Z,13.23
2018-03-30T11:25:32.466Z,12.65
2018-03-30T11:26:32.453Z,12.45
2018-03-30T11:27:32.445Z,11.67
2018-03-30T11:28:32.450Z,11.57
2018-03-30T11:29:32.491Z,11.77
2018-03-30T11:30:32.444Z,10.69
2018-03-30T11:31:32.427Z,10.69
2018-03-30T11:32:32.422Z,10.69
2018-03-30T11:33:32.446Z,11.49
2018-03-30T11:34:32.429Z,10.71
2018-03-30T11:35:32.421Z,10.51
2018-03-30T11:36:32.437Z,10.21
2018-03-30T11:37:32.448Z,10.31
2018-03-30T11:38:32.425Z,10.71
2018-03-30T11:39:32.426Z,10.90
2018-03-30T11:40:32.488Z,10.49
2018-03-30T11:41:32.422Z,10.96
2018-03-30T11:42:32.402Z,12.82
2018-03-30T11:43:32.418Z,13.51
2018-03-30T11:44:32.410Z,13.21
2018-03-30T11:45:32.420Z,13.40
2018-03-30T11:46:32.385Z,12.82
2018-03-30T11:47:32.388Z,12.43
2018-03-30T11:48:32.433Z,12.26
2018-03-30T11:49:32.408Z,11.66
2018-03-30T11:50:32.495Z,11.95
2018-03-30T11:51:32.385Z,11.46
2018-03-30T11:52:32.387Z,11.44
2018-03-30T11:53:32.372Z,11.53
2018-03-30T11:54:32.374Z,12.87
2018-03-30T11:55:32.374Z,14.03
2018-03-30T11:56:32.368Z,14.52
2018-03-30T11:57:32.358Z,13.74
2018-03-30T11:58:32.361Z,13.73
2018-03-30T11:59:32.390Z,14.59
2018-03-30T12:00:32.356Z,16.32
2018-03-30T12:01:32.361Z,17.76
2018-03-30T12:02:32.330Z,18.05
2018-03-30T12:03:32.340Z,16.87
2018-03-30T12:04:32.321Z,17.92
2018-03-30T12:05:32.353Z,18.39
2018-03-30T12:06:32.307Z,19.43
2018-03-30T12:07:32.329Z,20.69
2018-03-30T12:08:32.317Z,20.61
2018-03-30T12:09:32.328Z,19.25
2018-03-30T12:10:32.281Z,19.45
2018-03-30T12:11:32.294Z,19.93
2018-03-30T12:12:32.296Z,20.03
2018-03-30T12:13:32.290Z,20.69
2018-03-30T12:14:32.255Z,20.96
2018-03-30T12:15:32.254Z,20.67
2018-03-30T12:16:32.222Z,21.34
2018-03-30T12:17:32.247Z,21.23
2018-03-30T12:18:32.232Z,21.91
2018-03-30T12:19:32.212Z,22.28
2018-03-30T12:20:32.201Z,22.97
2018-03-30T12:21:32.220Z,22.67
2018-03-30T12:22:32.192Z,22.67
2018-03-30T12:23:32.155Z,22.87
2018-03-30T12:24:32.163Z,22.38
2018-03-30T12:25:32.139Z,22.47
2018-03-30T12:26:32.148Z,22.94
2018-03-30T12:27:32.170Z,23.03
2018-03-30T12:28:32.140Z,22.92
2018-03-30T12:29:32.119Z,24.74
2018-03-30T12:30:32.104Z,25.12
2018-03-30T12:31:32.128Z,25.51
2018-03-30T12:32:32.081Z,26.00
2018-03-30T12:33:32.078Z,25.54
2018-03-30T12:34:32.084Z,24.68
2018-03-30T12:35:32.047Z,23.16
2018-03-30T12:36:32.009Z,21.91
2018-03-30T12:37:32.020Z,21.82
2018-03-30T12:38:32.024Z,21.52
2018-03-30T12:39:32.024Z,21.62
2018-03-30T12:40:31.987Z,21.62
2018-03-30T12:41:31.979Z,21.24
2018-03-30T12:42:31.980Z,22.00
2018-03-30T12:43:34.859Z,23.35
2018-03-30T12:44:31.941Z,22.10
2018-03-30T12:45:31.935Z,22.39
2018-03-30T12:46:31.939Z,22.59
2018-03-30T12:47:31.918Z,21.53
2018-03-30T12:48:31.900Z,21.44
2018-03-30T12:49:31.925Z,21.72
2018-03-30T12:50:31.864Z,21.64
2018-03-30T12:51:31.907Z,21.92
2018-03-30T12:52:31.826Z,23.10